createdAt,value
2022-11-11T00:01:05.334Z,100.00
2022-11-11T00:03:33.014Z,100.00
2022-11-11T00:06:10.226Z,100.00
2022-11-11T00:08:36.849Z,100.00
2022-11-11T00:11:05.985Z,100.00
2022-11-11T00:13:33.999Z,100.00
2022-11-11T00:16:08.330Z,100.00
2022-11-11T00:18:54.399Z,100.00
2022-11-11T00:21:39.571Z,100.00
2022-11-11T00:24:38.574Z,100.00
2022-11-11T00:27:05.641Z,100.00
2022-11-11T00:29:32.441Z,100.00
2022-11-11T00:32:17.637Z,100.00
2022-11-11T00:35:04.205Z,100.00
2022-11-11T00:37:30.802Z,100.00
2022-11-11T00:39:57.461Z,100.00
2022-11-11T00:42:24.105Z,100.00
2022-11-11T00:44:50.774Z,100.00
2022-11-11T00:47:35.697Z,100.00
2022-11-11T00:50:22.410Z,100.00
2022-11-11T00:52:48.962Z,100.00
2022-11-11T00:55:15.659Z,100.00
2022-11-11T00:57:42.199Z,100.00
2022-11-11T01:00:09.157Z,100.00
2022-11-11T01:02:35.934Z,100.00
2022-11-11T01:05:02.608Z,100.00
2022-11-11T01:07:29.530Z,100.00
2022-11-11T01:09:56.200Z,100.00
2022-11-11T01:12:22.937Z,100.00
2022-11-11T01:14:49.606Z,100.00
2022-11-11T01:17:16.230Z,100.00
2022-11-11T01:19:42.798Z,100.00
2022-11-11T01:22:09.358Z,100.00
2022-11-11T01:24:38.437Z,100.00
2022-11-11T01:27:05.073Z,100.00
2022-11-11T01:29:31.819Z,100.00
2022-11-11T01:31:58.350Z,100.00
2022-11-11T01:34:25.058Z,100.00
2022-11-11T01:36:51.732Z,100.00
2022-11-11T01:39:18.396Z,100.00
2022-11-11T01:41:45.340Z,100.00
2022-11-11T01:44:11.957Z,100.00
2022-11-11T01:46:47.636Z,100.00
2022-11-11T01:49:33.675Z,100.00
2022-11-11T01:52:26.332Z,100.00
2022-11-11T01:55:13.210Z,100.00
2022-11-11T01:57:48.960Z,100.00
2022-11-11T02:00:19.020Z,100.00
2022-11-11T02:02:51.220Z,100.00
2022-11-11T02:05:38.691Z,100.00
2022-11-11T02:08:33.956Z,100.00
2022-11-11T02:11:14.268Z,100.00
2022-11-11T02:14:01.564Z,100.00
2022-11-11T02:16:29.285Z,100.00
2022-11-11T02:18:56.286Z,100.00
2022-11-11T02:21:33.991Z,100.00
2022-11-11T02:24:03.239Z,100.00
2022-11-11T02:26:32.804Z,100.00
2022-11-11T02:29:00.222Z,100.00
2022-11-11T02:31:30.301Z,100.00
2022-11-11T02:33:57.061Z,100.00
2022-11-11T02:36:24.285Z,100.00
2022-11-11T02:38:51.091Z,100.00
2022-11-11T02:41:36.807Z,100.00
2022-11-11T02:44:03.839Z,100.00
2022-11-11T02:46:30.649Z,100.00
2022-11-11T02:48:57.370Z,100.00
2022-11-11T02:51:24.154Z,100.00
2022-11-11T02:53:50.790Z,100.00
2022-11-11T02:56:37.425Z,100.00
2022-11-11T02:59:04.092Z,100.00
2022-11-11T03:01:30.851Z,100.00
2022-11-11T03:03:57.559Z,100.00
2022-11-11T03:06:24.215Z,100.00
2022-11-11T03:08:50.924Z,100.00
2022-11-11T03:11:28.042Z,100.00
2022-11-11T03:13:58.478Z,100.00
2022-11-11T03:16:44.904Z,100.00
2022-11-11T03:19:11.686Z,100.00
2022-11-11T03:24:45.493Z,100.00
2022-11-11T03:27:12.803Z,100.00
2022-11-11T03:29:39.351Z,100.00
2022-11-11T03:32:07.788Z,100.00
2022-11-11T03:34:34.561Z,100.00
2022-11-11T03:37:19.715Z,100.00
2022-11-11T03:39:46.701Z,100.00
2022-11-11T03:42:13.224Z,100.00
2022-11-11T03:44:39.832Z,100.00
2022-11-11T03:47:06.428Z,100.00
2022-11-11T03:49:33.001Z,100.00
2022-11-11T03:51:59.528Z,100.00
2022-11-11T03:54:26.109Z,100.00
2022-11-11T03:56:53.104Z,100.00
2022-11-11T03:59:19.622Z,100.00
2022-11-11T04:02:18.351Z,100.00
2022-11-11T04:05:03.208Z,100.00
2022-11-11T04:07:48.026Z,100.00
2022-11-11T04:10:23.816Z,100.00
2022-11-11T04:13:10.020Z,100.00
2022-11-11T04:15:54.973Z,100.00
2022-11-11T04:18:44.022Z,100.00
2022-11-11T04:21:29.353Z,100.00
2022-11-11T04:23:55.952Z,100.00
2022-11-11T04:26:22.747Z,100.00
2022-11-11T04:29:07.702Z,100.00
2022-11-11T04:31:34.300Z,100.00
2022-11-11T04:34:00.820Z,100.00
2022-11-11T04:36:27.456Z,100.00
2022-11-11T04:39:12.688Z,100.00
2022-11-11T04:42:01.493Z,100.00
2022-11-11T04:44:44.379Z,100.00
2022-11-11T04:47:10.942Z,100.00
2022-11-11T04:49:37.507Z,100.00
2022-11-11T04:52:22.947Z,100.00
2022-11-11T04:55:07.779Z,100.00
2022-11-11T04:57:34.327Z,100.00
2022-11-11T05:00:00.866Z,100.00
2022-11-11T05:02:45.658Z,100.00
2022-11-11T05:05:12.344Z,100.00
2022-11-11T05:07:57.567Z,100.00
2022-11-11T05:10:25.167Z,100.00
2022-11-11T05:12:51.718Z,100.00
2022-11-11T05:15:36.496Z,100.00
2022-11-11T05:18:21.858Z,100.00
2022-11-11T05:21:08.551Z,100.00
2022-11-11T05:23:53.203Z,100.00
2022-11-11T05:26:19.714Z,100.00
2022-11-11T05:28:47.294Z,100.00
2022-11-11T05:31:13.824Z,100.00
2022-11-11T05:33:40.344Z,100.00
2022-11-11T05:36:07.236Z,100.00
2022-11-11T05:38:33.859Z,100.00
2022-11-11T05:41:00.411Z,100.00
2022-11-11T05:43:27.205Z,100.00
2022-11-11T05:45:53.884Z,100.00
2022-11-11T05:48:20.470Z,100.00
2022-11-11T05:50:47.064Z,100.00
2022-11-11T05:53:13.654Z,100.00
2022-11-11T05:55:40.427Z,100.00
2022-11-11T05:58:06.974Z,100.00
2022-11-11T06:00:33.599Z,100.00
2022-11-11T06:03:04.553Z,100.00
2022-11-11T06:05:31.065Z,100.00
2022-11-11T06:07:57.688Z,100.00
2022-11-11T06:10:33.200Z,100.00
2022-11-11T06:13:05.152Z,100.00
2022-11-11T06:15:33.497Z,100.00
2022-11-11T06:18:00.194Z,100.00
2022-11-11T06:20:27.221Z,100.00
2022-11-11T06:22:56.814Z,100.00
2022-11-11T06:25:47.075Z,100.00
2022-11-11T06:28:14.631Z,100.00
2022-11-11T06:30:51.334Z,100.00
2022-11-11T06:33:19.083Z,100.00
2022-11-11T06:35:45.583Z,100.00
2022-11-11T06:38:12.246Z,100.00
2022-11-11T06:40:39.012Z,100.00
2022-11-11T06:43:05.599Z,100.00
2022-11-11T06:45:33.592Z,100.00
2022-11-11T06:48:00.163Z,100.00
2022-11-11T06:50:26.855Z,100.00
2022-11-11T06:52:53.388Z,100.00
2022-11-11T06:55:19.998Z,100.00
2022-11-11T06:57:46.686Z,100.00
2022-11-11T07:00:14.048Z,100.00
2022-11-11T07:02:40.682Z,100.00
2022-11-11T07:05:07.483Z,100.00
2022-11-11T07:07:34.167Z,100.00
2022-11-11T07:10:01.458Z,100.00
2022-11-11T07:12:28.098Z,100.00
2022-11-11T07:14:54.642Z,100.00
2022-11-11T07:17:21.193Z,100.00
2022-11-11T07:19:47.836Z,100.00
2022-11-11T07:22:14.352Z,100.00
2022-11-11T07:24:40.911Z,100.00
2022-11-11T07:27:07.422Z,100.00
2022-11-11T07:29:34.003Z,100.00
2022-11-11T07:32:00.570Z,100.00
2022-11-11T07:34:28.831Z,100.00
2022-11-11T07:36:55.563Z,100.00
2022-11-11T07:39:22.159Z,100.00
2022-11-11T07:41:48.684Z,100.00
2022-11-11T07:44:15.216Z,100.00
2022-11-11T07:46:41.796Z,100.00
2022-11-11T07:49:09.514Z,100.00
2022-11-11T07:51:36.053Z,100.00
2022-11-11T07:54:02.827Z,100.00
2022-11-11T07:56:29.388Z,100.00
2022-11-11T07:58:56.008Z,100.00
2022-11-11T08:01:22.673Z,100.00
2022-11-11T08:03:51.883Z,100.00
2022-11-11T08:06:20.795Z,100.00
2022-11-11T08:08:48.215Z,100.00
2022-11-11T08:11:15.266Z,100.00
2022-11-11T08:13:44.099Z,100.00
2022-11-11T08:16:12.293Z,100.00
2022-11-11T08:18:39.170Z,100.00
2022-11-11T08:21:06.516Z,100.00
2022-11-11T08:23:59.044Z,100.00
2022-11-11T08:26:27.666Z,100.00
2022-11-11T08:28:55.718Z,100.00
2022-11-11T08:31:22.277Z,100.00
2022-11-11T08:33:49.191Z,100.00
2022-11-11T08:36:20.525Z,100.00
2022-11-11T08:38:47.787Z,100.00
2022-11-11T08:41:14.391Z,100.00
2022-11-11T08:43:41.501Z,100.00
2022-11-11T08:46:08.198Z,100.00
2022-11-11T08:48:34.853Z,100.00
2022-11-11T08:51:01.489Z,100.00
2022-11-11T08:53:28.626Z,100.00
2022-11-11T08:55:55.545Z,100.00
2022-11-11T08:58:22.230Z,100.00
2022-11-11T09:00:48.902Z,100.00
2022-11-11T09:03:15.465Z,100.00
2022-11-11T09:05:42.218Z,100.00
2022-11-11T09:08:09.035Z,100.00
2022-11-11T09:10:36.217Z,100.00
2022-11-11T09:13:03.620Z,100.00
2022-11-11T09:15:30.321Z,100.00
2022-11-11T09:17:57.108Z,100.00
2022-11-11T09:20:25.354Z,100.00
2022-11-11T09:22:53.166Z,100.00
2022-11-11T09:25:20.856Z,100.00
2022-11-11T09:28:01.446Z,100.00
2022-11-11T09:30:29.208Z,100.00
2022-11-11T09:33:00.776Z,100.00
2022-11-11T09:35:27.483Z,100.00
2022-11-11T09:37:56.055Z,100.00
2022-11-11T09:40:24.563Z,100.00
2022-11-11T09:43:02.757Z,100.00
2022-11-11T09:45:48.566Z,100.00
2022-11-11T09:48:34.724Z,99.52
2022-11-11T09:51:03.776Z,97.79
2022-11-11T09:53:40.140Z,97.96
2022-11-11T09:56:29.721Z,96.09
2022-11-11T09:59:07.284Z,95.45
2022-11-11T10:01:49.566Z,95.18
2022-11-11T10:04:34.786Z,93.95
2022-11-11T10:07:10.122Z,93.59
2022-11-11T10:09:47.511Z,93.03
2022-11-11T10:12:18.238Z,92.74
2022-11-11T10:14:51.195Z,91.42
2022-11-11T10:17:48.694Z,90.80
2022-11-11T10:20:23.019Z,90.10
2022-11-11T10:23:11.091Z,90.04
2022-11-11T10:25:47.223Z,89.37
2022-11-11T10:28:19.127Z,89.28
2022-11-11T10:30:47.502Z,87.00
2022-11-11T10:33:25.918Z,88.16
2022-11-11T10:35:54.250Z,87.09
2022-11-11T10:38:35.245Z,85.74
2022-11-11T10:41:18.046Z,81.13
2022-11-11T10:43:47.887Z,82.97
2022-11-11T10:46:25.426Z,83.41
2022-11-11T10:49:12.261Z,82.64
2022-11-11T10:51:49.552Z,81.28
2022-11-11T10:54:21.772Z,81.19
2022-11-11T10:57:05.032Z,80.83
2022-11-11T10:59:43.680Z,78.68
2022-11-11T11:02:21.438Z,80.21
2022-11-11T11:04:58.471Z,79.73
2022-11-11T11:07:30.903Z,78.52
2022-11-11T11:10:06.527Z,79.97
2022-11-11T11:12:41.837Z,79.73
2022-11-11T11:15:17.536Z,79.51
2022-11-11T11:17:49.754Z,78.50
2022-11-11T11:20:20.670Z,79.43
2022-11-11T11:22:48.844Z,78.25
2022-11-11T11:25:15.828Z,77.94
2022-11-11T11:27:42.460Z,76.56
2022-11-11T11:30:17.167Z,76.34
2022-11-11T11:32:57.707Z,76.92
2022-11-11T11:35:31.557Z,76.48
2022-11-11T11:37:58.311Z,77.01
2022-11-11T11:40:24.952Z,77.06
2022-11-11T11:42:51.512Z,73.86
2022-11-11T11:45:25.577Z,73.64
2022-11-11T11:48:31.143Z,72.94
2022-11-11T11:51:39.775Z,74.17
2022-11-11T11:54:40.557Z,74.53
2022-11-11T11:57:28.941Z,72.87
2022-11-11T12:00:18.094Z,72.97
2022-11-11T12:03:06.323Z,74.04
2022-11-11T12:06:10.304Z,74.76
2022-11-11T12:09:05.307Z,74.35
2022-11-11T12:11:58.744Z,73.25
2022-11-11T12:15:00.264Z,72.91
2022-11-11T12:17:36.615Z,73.55
2022-11-11T12:20:10.898Z,72.35
2022-11-11T12:23:06.930Z,72.69
2022-11-11T12:26:10.670Z,71.52
2022-11-11T12:28:58.505Z,72.15
2022-11-11T12:31:40.311Z,72.16
2022-11-11T12:34:31.637Z,70.22
2022-11-11T12:37:19.544Z,70.28
2022-11-11T12:39:58.121Z,70.05
2022-11-11T12:42:42.939Z,68.68
2022-11-11T12:45:22.359Z,69.88
2022-11-11T12:48:05.435Z,67.38
2022-11-11T12:50:44.092Z,67.48
2022-11-11T12:53:35.587Z,66.84
2022-11-11T12:56:30.957Z,64.29
2022-11-11T12:59:01.811Z,65.89
2022-11-11T13:01:34.403Z,64.97
2022-11-11T13:04:30.973Z,64.08
2022-11-11T13:07:34.566Z,63.83
2022-11-11T13:10:32.143Z,64.46
2022-11-11T13:13:09.405Z,64.10
2022-11-11T13:15:35.999Z,64.23
2022-11-11T13:18:08.232Z,64.60
2022-11-11T13:20:57.176Z,64.54
2022-11-11T13:23:25.482Z,63.29
2022-11-11T13:26:01.669Z,64.55
2022-11-11T13:28:35.377Z,64.96
2022-11-11T13:31:26.115Z,64.78
2022-11-11T13:33:58.204Z,64.23
2022-11-11T13:36:28.406Z,64.13
2022-11-11T13:39:03.242Z,64.55
2022-11-11T13:41:32.858Z,64.81
2022-11-11T13:44:03.890Z,65.09
2022-11-11T13:46:33.447Z,65.61
2022-11-11T13:49:02.558Z,66.08
2022-11-11T13:51:44.031Z,65.83
2022-11-11T13:54:35.722Z,64.96
2022-11-11T13:57:20.701Z,64.92
2022-11-11T14:00:23.797Z,64.64
2022-11-11T14:03:22.646Z,63.67
2022-11-11T14:06:15.258Z,63.42
2022-11-11T14:08:47.878Z,63.88
2022-11-11T14:11:26.690Z,64.15
2022-11-11T14:13:57.275Z,64.55
2022-11-11T14:16:35.963Z,65.04
2022-11-11T14:19:20.616Z,63.37
2022-11-11T14:22:01.805Z,64.35
2022-11-11T14:24:38.996Z,63.80
2022-11-11T14:27:16.374Z,63.20
2022-11-11T14:29:50.983Z,64.80
2022-11-11T14:32:36.554Z,63.74
2022-11-11T14:35:09.088Z,65.18
2022-11-11T14:38:02.795Z,64.58
2022-11-11T14:40:31.824Z,64.53
2022-11-11T14:43:00.394Z,65.37
2022-11-11T14:45:30.235Z,65.52
2022-11-11T14:47:57.854Z,65.96
2022-11-11T14:50:33.265Z,65.50
2022-11-11T14:53:22.431Z,65.13
2022-11-11T14:55:54.471Z,64.46
2022-11-11T14:58:25.261Z,63.97
2022-11-11T15:00:58.180Z,63.64
2022-11-11T15:03:50.087Z,65.57
2022-11-11T15:06:19.913Z,64.32
2022-11-11T15:09:15.459Z,64.19
2022-11-11T15:11:45.974Z,64.02
2022-11-11T15:14:21.534Z,64.75
2022-11-11T15:17:20.332Z,63.07
2022-11-11T15:20:08.390Z,64.43
2022-11-11T15:22:52.799Z,64.35
2022-11-11T15:25:41.148Z,64.36
2022-11-11T15:28:26.401Z,63.55
2022-11-11T15:31:12.633Z,63.43
2022-11-11T15:33:42.204Z,63.95
2022-11-11T15:36:13.227Z,63.30
2022-11-11T15:38:39.995Z,63.21
2022-11-11T15:41:11.388Z,62.84
2022-11-11T15:43:39.933Z,63.06
2022-11-11T15:46:06.781Z,63.22
2022-11-11T15:48:43.936Z,63.04
2022-11-11T15:51:17.501Z,63.40
2022-11-11T15:53:44.669Z,63.64
2022-11-11T15:56:11.288Z,63.75
2022-11-11T15:58:37.853Z,64.53
2022-11-11T16:01:08.075Z,64.53
2022-11-11T16:03:42.277Z,64.23
2022-11-11T16:06:16.395Z,63.42
2022-11-11T16:08:45.421Z,64.29
2022-11-11T16:11:15.280Z,63.47
2022-11-11T16:14:07.878Z,64.15
2022-11-11T16:16:39.732Z,63.61
2022-11-11T16:19:19.413Z,65.32
2022-11-11T16:22:18.394Z,65.07
2022-11-11T16:24:47.566Z,65.58
2022-11-11T16:27:24.692Z,65.69
2022-11-11T16:29:52.681Z,66.09
2022-11-11T16:32:33.034Z,66.49
2022-11-11T16:34:59.966Z,66.51
2022-11-11T16:37:26.909Z,66.19
2022-11-11T16:39:53.564Z,65.93
2022-11-11T16:42:29.874Z,66.97
2022-11-11T16:45:19.366Z,67.23
2022-11-11T16:47:49.206Z,67.97
2022-11-11T16:50:23.234Z,68.46
2022-11-11T16:53:04.918Z,68.51
2022-11-11T16:55:44.372Z,67.38
2022-11-11T16:58:13.743Z,66.68
2022-11-11T17:00:43.153Z,67.53
2022-11-11T17:03:09.693Z,67.97
2022-11-11T17:06:08.457Z,68.57
2022-11-11T17:08:39.506Z,69.06
2022-11-11T17:11:30.302Z,69.57
2022-11-11T17:13:57.082Z,70.02
2022-11-11T17:16:23.871Z,69.72
2022-11-11T17:18:50.445Z,69.56
2022-11-11T17:21:17.093Z,69.44
2022-11-11T17:23:43.616Z,69.23
2022-11-11T17:26:10.145Z,70.10
2022-11-11T17:28:37.740Z,69.69
2022-11-11T17:31:05.544Z,69.47
2022-11-11T17:33:32.136Z,69.14
2022-11-11T17:36:01.092Z,68.75
2022-11-11T17:38:28.070Z,68.94
2022-11-11T17:40:54.725Z,69.00
2022-11-11T17:43:21.540Z,69.38
2022-11-11T17:45:48.064Z,69.61
2022-11-11T17:48:14.670Z,69.77
2022-11-11T17:50:41.326Z,69.95
2022-11-11T17:53:13.703Z,70.31
2022-11-11T17:55:43.147Z,70.11
2022-11-11T17:58:11.675Z,70.28
2022-11-11T18:00:38.346Z,70.54
2022-11-11T18:03:04.904Z,71.26
2022-11-11T18:05:34.135Z,71.08
2022-11-11T18:08:00.817Z,71.56
2022-11-11T18:10:27.685Z,71.67
2022-11-11T18:12:54.325Z,71.56
2022-11-11T18:15:22.109Z,71.58
2022-11-11T18:17:48.828Z,72.01
2022-11-11T18:20:15.547Z,72.41
2022-11-11T18:22:42.036Z,72.53
2022-11-11T18:25:08.809Z,72.82
2022-11-11T18:27:35.354Z,73.03
2022-11-11T18:30:01.885Z,73.80
2022-11-11T18:32:29.618Z,74.04
2022-11-11T18:34:56.273Z,75.34
2022-11-11T18:37:22.823Z,75.27
2022-11-11T18:39:49.379Z,75.06
2022-11-11T18:42:16.012Z,75.18
2022-11-11T18:44:42.501Z,75.97
2022-11-11T18:47:09.067Z,76.40
2022-11-11T18:49:35.589Z,75.80
2022-11-11T18:52:02.188Z,76.88
2022-11-11T18:54:30.517Z,77.40
2022-11-11T18:56:57.433Z,77.38
2022-11-11T18:59:23.993Z,78.21
2022-11-11T19:01:54.465Z,78.02
2022-11-11T19:04:22.023Z,77.71
2022-11-11T19:06:50.717Z,77.58
2022-11-11T19:09:18.636Z,77.13
2022-11-11T19:11:47.183Z,78.13
2022-11-11T19:14:21.480Z,77.94
2022-11-11T19:16:50.276Z,78.71
2022-11-11T19:19:18.977Z,78.99
2022-11-11T19:21:46.768Z,79.32
2022-11-11T19:24:15.431Z,79.31
2022-11-11T19:26:47.665Z,79.57
2022-11-11T19:29:14.424Z,79.99
2022-11-11T19:31:42.929Z,79.41
2022-11-11T19:34:11.600Z,79.87
2022-11-11T19:36:39.423Z,79.75
2022-11-11T19:39:07.315Z,79.69
2022-11-11T19:41:35.023Z,79.55
2022-11-11T19:44:02.879Z,79.57
2022-11-11T19:46:30.899Z,79.38
2022-11-11T19:48:58.960Z,80.11
2022-11-11T19:51:29.427Z,80.16
2022-11-11T19:53:57.630Z,80.25
2022-11-11T19:56:30.219Z,80.18
2022-11-11T19:58:59.723Z,79.19
2022-11-11T20:01:27.885Z,81.87
2022-11-11T20:03:56.566Z,83.22
2022-11-11T20:06:34.922Z,81.77
2022-11-11T20:09:07.867Z,81.19
2022-11-11T20:11:35.997Z,81.99
2022-11-11T20:14:06.457Z,83.54
2022-11-11T20:16:33.366Z,83.61
2022-11-11T20:19:01.918Z,84.47
2022-11-11T20:21:30.128Z,83.90
2022-11-11T20:23:58.975Z,82.81
2022-11-11T20:26:26.690Z,84.44
2022-11-11T20:28:58.766Z,84.14
2022-11-11T20:31:28.303Z,84.59
2022-11-11T20:33:56.985Z,84.15
2022-11-11T20:36:23.842Z,85.11
2022-11-11T20:38:52.204Z,84.13
2022-11-11T20:41:20.481Z,84.75
2022-11-11T20:43:47.559Z,84.33
2022-11-11T20:46:17.643Z,84.28
2022-11-11T20:48:46.899Z,82.85
2022-11-11T20:51:19.462Z,82.01
2022-11-11T20:53:46.028Z,82.58
2022-11-11T20:56:22.388Z,82.43
2022-11-11T20:58:54.988Z,82.80
2022-11-11T21:01:25.884Z,83.23
2022-11-11T21:03:58.276Z,83.36
2022-11-11T21:06:27.300Z,84.41
2022-11-11T21:08:53.986Z,83.87
2022-11-11T21:11:23.740Z,84.69
2022-11-11T21:13:56.722Z,84.62
2022-11-11T21:16:25.982Z,83.32
2022-11-11T21:18:54.906Z,84.64
2022-11-11T21:21:26.044Z,83.74
2022-11-11T21:24:02.195Z,83.86
2022-11-11T21:26:30.919Z,84.47
2022-11-11T21:28:59.438Z,84.71
2022-11-11T21:31:29.762Z,83.57
2022-11-11T21:34:09.237Z,83.34
2022-11-11T21:36:40.031Z,83.16
2022-11-11T21:39:09.622Z,82.79
2022-11-11T21:41:38.997Z,82.97
2022-11-11T21:44:08.909Z,82.96
2022-11-11T21:46:37.838Z,83.26
2022-11-11T21:49:05.200Z,83.12
2022-11-11T21:51:35.338Z,83.69
2022-11-11T21:54:09.691Z,85.12
2022-11-11T21:56:38.045Z,84.80
2022-11-11T21:59:06.866Z,86.45
2022-11-11T22:01:41.975Z,87.19
2022-11-11T22:04:12.374Z,88.01
2022-11-11T22:06:39.980Z,87.60
2022-11-11T22:09:08.521Z,87.01
2022-11-11T22:11:37.150Z,87.03
2022-11-11T22:14:05.426Z,87.40
2022-11-11T22:16:36.785Z,86.96
2022-11-11T22:19:12.573Z,88.60
2022-11-11T22:21:41.711Z,89.20
2022-11-11T22:24:10.283Z,89.25
2022-11-11T22:26:42.768Z,89.21
2022-11-11T22:29:12.603Z,89.64
2022-11-11T22:31:42.348Z,90.15
2022-11-11T22:34:12.621Z,90.30
2022-11-11T22:36:41.979Z,90.62
2022-11-11T22:39:09.180Z,90.46
2022-11-11T22:41:39.486Z,90.86
2022-11-11T22:44:07.495Z,90.57
2022-11-11T22:46:35.080Z,89.61
2022-11-11T22:49:05.166Z,89.84
2022-11-11T22:51:34.311Z,89.79
2022-11-11T22:54:05.150Z,90.86
2022-11-11T22:56:34.713Z,90.84
2022-11-11T22:59:04.113Z,90.56
2022-11-11T23:01:33.321Z,90.56
2022-11-11T23:04:03.718Z,90.33
2022-11-11T23:06:36.213Z,90.64
2022-11-11T23:09:04.326Z,90.88
2022-11-11T23:11:32.835Z,90.78
2022-11-11T23:14:05.865Z,91.25
2022-11-11T23:16:33.127Z,90.83
2022-11-11T23:19:04.396Z,90.77
2022-11-11T23:21:32.694Z,90.74
2022-11-11T23:23:59.568Z,90.28
2022-11-11T23:26:30.087Z,89.28
2022-11-11T23:28:58.235Z,89.32
2022-11-11T23:31:31.659Z,88.50
2022-11-11T23:34:00.570Z,88.32
2022-11-11T23:36:32.436Z,88.34
2022-11-11T23:39:00.643Z,88.64
2022-11-11T23:41:28.712Z,88.20
2022-11-11T23:43:56.385Z,87.82
2022-11-11T23:46:24.075Z,88.04
2022-11-11T23:48:50.654Z,88.03
2022-11-11T23:51:18.687Z,87.66
2022-11-11T23:53:46.351Z,87.95
2022-11-11T23:56:12.983Z,87.57
2022-11-11T23:58:40.762Z,87.77
